sensor_id;sensor_type;location;lat;lon;timestamp;P1;durP1;ratioP1;P2;durP2;ratioP2
38021;SDS011;23832;43.216;27.946;2023-03-05T00:01:41;171.40;;;159.90;;
38021;SDS011;23832;43.216;27.946;2023-03-05T00:03:43;166.68;;;155.73;;
38021;SDS011;23832;43.216;27.946;2023-03-05T00:05:45;169.07;;;158.15;;
38021;SDS011;23832;43.216;27.946;2023-03-05T00:07:47;172.02;;;160.90;;
38021;SDS011;23832;43.216;27.946;2023-03-05T00:09:49;168.25;;;157.30;;
38021;SDS011;23832;43.216;27.946;2023-03-05T00:11:53;170.13;;;159.02;;
38021;SDS011;23832;43.216;27.946;2023-03-05T00:13:55;171.88;;;160.55;;
38021;SDS011;23832;43.216;27.946;2023-03-05T00:15:57;172.30;;;161.20;;
38021;SDS011;23832;43.216;27.946;2023-03-05T00:18:00;174.15;;;162.73;;
38021;SDS011;23832;43.216;27.946;2023-03-05T00:20:02;170.20;;;158.80;;
38021;SDS011;23832;43.216;27.946;2023-03-05T00:22:04;173.63;;;162.20;;
38021;SDS011;23832;43.216;27.946;2023-03-05T00:24:07;174.38;;;162.95;;
38021;SDS011;23832;43.216;27.946;2023-03-05T00:26:11;171.20;;;160.00;;
38021;SDS011;23832;43.216;27.946;2023-03-05T00:28:15;173.68;;;162.23;;
38021;SDS011;23832;43.216;27.946;2023-03-05T00:30:17;169.20;;;158.05;;
38021;SDS011;23832;43.216;27.946;2023-03-05T00:32:19;174.05;;;162.45;;
38021;SDS011;23832;43.216;27.946;2023-03-05T00:34:21;177.45;;;165.88;;
38021;SDS011;23832;43.216;27.946;2023-03-05T00:36:25;174.70;;;163.10;;
38021;SDS011;23832;43.216;27.946;2023-03-05T00:38:27;174.10;;;162.80;;
38021;SDS011;23832;43.216;27.946;2023-03-05T00:40:29;171.32;;;159.95;;
38021;SDS011;23832;43.216;27.946;2023-03-05T00:42:31;173.15;;;161.68;;
38021;SDS011;23832;43.216;27.946;2023-03-05T00:44:39;174.20;;;162.45;;
38021;SDS011;23832;43.216;27.946;2023-03-05T00:46:40;170.10;;;159.10;;
38021;SDS011;23832;43.216;27.946;2023-03-05T00:48:42;166.65;;;155.65;;
38021;SDS011;23832;43.216;27.946;2023-03-05T00:50:44;171.18;;;160.02;;
38021;SDS011;23832;43.216;27.946;2023-03-05T00:52:46;169.35;;;158.45;;
38021;SDS011;23832;43.216;27.946;2023-03-05T00:54:48;172.82;;;161.20;;
38021;SDS011;23832;43.216;27.946;2023-03-05T00:56:50;173.55;;;161.90;;
38021;SDS011;23832;43.216;27.946;2023-03-05T00:58:52;169.63;;;158.18;;
38021;SDS011;23832;43.216;27.946;2023-03-05T01:00:57;171.38;;;160.02;;
38021;SDS011;23832;43.216;27.946;2023-03-05T01:03:01;171.90;;;160.40;;
38021;SDS011;23832;43.216;27.946;2023-03-05T01:05:04;172.52;;;161.07;;
38021;SDS011;23832;43.216;27.946;2023-03-05T01:07:06;174.57;;;163.05;;
38021;SDS011;23832;43.216;27.946;2023-03-05T01:09:08;178.95;;;167.10;;
38021;SDS011;23832;43.216;27.946;2023-03-05T01:11:11;176.70;;;164.93;;
38021;SDS011;23832;43.216;27.946;2023-03-05T01:13:13;177.02;;;165.38;;
38021;SDS011;23832;43.216;27.946;2023-03-05T01:15:15;177.23;;;165.82;;
38021;SDS011;23832;43.216;27.946;2023-03-05T01:17:19;176.23;;;164.50;;
38021;SDS011;23832;43.216;27.946;2023-03-05T01:19:21;177.90;;;165.95;;
38021;SDS011;23832;43.216;27.946;2023-03-05T01:21:22;174.82;;;163.40;;
38021;SDS011;23832;43.216;27.946;2023-03-05T01:23:24;178.30;;;166.52;;
38021;SDS011;23832;43.216;27.946;2023-03-05T01:25:26;175.07;;;163.70;;
38021;SDS011;23832;43.216;27.946;2023-03-05T01:27:28;173.60;;;162.27;;
38021;SDS011;23832;43.216;27.946;2023-03-05T01:29:30;174.65;;;163.35;;
38021;SDS011;23832;43.216;27.946;2023-03-05T01:31:32;174.27;;;163.07;;
38021;SDS011;23832;43.216;27.946;2023-03-05T01:33:35;174.32;;;162.88;;
38021;SDS011;23832;43.216;27.946;2023-03-05T01:35:37;174.90;;;163.65;;
38021;SDS011;23832;43.216;27.946;2023-03-05T01:37:39;173.15;;;161.95;;
38021;SDS011;23832;43.216;27.946;2023-03-05T01:39:41;174.02;;;162.73;;
38021;SDS011;23832;43.216;27.946;2023-03-05T01:41:43;176.23;;;164.70;;
38021;SDS011;23832;43.216;27.946;2023-03-05T01:43:45;181.00;;;169.10;;
38021;SDS011;23832;43.216;27.946;2023-03-05T01:48:33;171.85;;;160.07;;
38021;SDS011;23832;43.216;27.946;2023-03-05T01:50:38;175.52;;;163.65;;
38021;SDS011;23832;43.216;27.946;2023-03-05T01:52:40;178.32;;;166.48;;
38021;SDS011;23832;43.216;27.946;2023-03-05T01:54:47;183.20;;;170.95;;
38021;SDS011;23832;43.216;27.946;2023-03-05T01:56:52;175.90;;;163.85;;
38021;SDS011;23832;43.216;27.946;2023-03-05T01:58:57;180.73;;;168.93;;
38021;SDS011;23832;43.216;27.946;2023-03-05T02:01:03;181.00;;;168.95;;
38021;SDS011;23832;43.216;27.946;2023-03-05T02:03:06;178.73;;;167.13;;
38021;SDS011;23832;43.216;27.946;2023-03-05T02:05:13;178.13;;;166.32;;
38021;SDS011;23832;43.216;27.946;2023-03-05T02:07:18;174.45;;;163.10;;
38021;SDS011;23832;43.216;27.946;2023-03-05T02:09:20;176.50;;;164.98;;
38021;SDS011;23832;43.216;27.946;2023-03-05T02:11:23;182.05;;;169.75;;
38021;SDS011;23832;43.216;27.946;2023-03-05T02:13:26;173.25;;;162.23;;
38021;SDS011;23832;43.216;27.946;2023-03-05T02:15:30;173.10;;;161.50;;
38021;SDS011;23832;43.216;27.946;2023-03-05T02:17:33;169.52;;;158.38;;
38021;SDS011;23832;43.216;27.946;2023-03-05T02:19:45;170.30;;;159.23;;
38021;SDS011;23832;43.216;27.946;2023-03-05T02:21:52;167.32;;;156.50;;
38021;SDS011;23832;43.216;27.946;2023-03-05T02:23:54;165.23;;;154.20;;
38021;SDS011;23832;43.216;27.946;2023-03-05T02:25:56;169.38;;;158.27;;
38021;SDS011;23832;43.216;27.946;2023-03-05T02:27:59;172.23;;;161.35;;
38021;SDS011;23832;43.216;27.946;2023-03-05T02:30:04;175.30;;;164.05;;
38021;SDS011;23832;43.216;27.946;2023-03-05T02:32:07;172.50;;;161.07;;
38021;SDS011;23832;43.216;27.946;2023-03-05T02:34:10;171.25;;;160.32;;
38021;SDS011;23832;43.216;27.946;2023-03-05T02:36:12;169.40;;;158.68;;
38021;SDS011;23832;43.216;27.946;2023-03-05T02:38:17;166.40;;;156.05;;
38021;SDS011;23832;43.216;27.946;2023-03-05T02:40:20;169.05;;;158.43;;
38021;SDS011;23832;43.216;27.946;2023-03-05T02:42:22;169.90;;;159.38;;
38021;SDS011;23832;43.216;27.946;2023-03-05T02:44:24;169.45;;;158.75;;
38021;SDS011;23832;43.216;27.946;2023-03-05T02:46:26;169.93;;;159.15;;
38021;SDS011;23832;43.216;27.946;2023-03-05T02:48:29;170.88;;;159.93;;
38021;SDS011;23832;43.216;27.946;2023-03-05T02:50:31;174.95;;;163.77;;
38021;SDS011;23832;43.216;27.946;2023-03-05T02:52:34;171.77;;;160.55;;
38021;SDS011;23832;43.216;27.946;2023-03-05T02:54:38;168.38;;;157.85;;
38021;SDS011;23832;43.216;27.946;2023-03-05T02:56:40;172.18;;;161.07;;
38021;SDS011;23832;43.216;27.946;2023-03-05T02:58:42;166.43;;;155.73;;
38021;SDS011;23832;43.216;27.946;2023-03-05T03:00:44;172.30;;;161.00;;
38021;SDS011;23832;43.216;27.946;2023-03-05T03:02:46;166.40;;;155.73;;
38021;SDS011;23832;43.216;27.946;2023-03-05T03:04:48;171.57;;;160.60;;
38021;SDS011;23832;43.216;27.946;2023-03-05T03:06:50;177.52;;;165.52;;
38021;SDS011;23832;43.216;27.946;2023-03-05T03:08:52;172.85;;;161.45;;
38021;SDS011;23832;43.216;27.946;2023-03-05T03:11:02;176.35;;;164.85;;
38021;SDS011;23832;43.216;27.946;2023-03-05T03:13:04;177.52;;;165.85;;
38021;SDS011;23832;43.216;27.946;2023-03-05T03:15:07;174.70;;;163.32;;
38021;SDS011;23832;43.216;27.946;2023-03-05T03:17:11;175.90;;;164.63;;
38021;SDS011;23832;43.216;27.946;2023-03-05T03:19:15;170.05;;;159.05;;
38021;SDS011;23832;43.216;27.946;2023-03-05T03:21:18;174.93;;;163.73;;
38021;SDS011;23832;43.216;27.946;2023-03-05T03:23:22;174.65;;;163.35;;
38021;SDS011;23832;43.216;27.946;2023-03-05T03:25:24;176.50;;;164.90;;
38021;SDS011;23832;43.216;27.946;2023-03-05T03:27:27;178.20;;;166.70;;
38021;SDS011;23832;43.216;27.946;2023-03-05T03:29:29;171.48;;;160.40;;
38021;SDS011;23832;43.216;27.946;2023-03-05T03:31:32;178.52;;;167.23;;
38021;SDS011;23832;43.216;27.946;2023-03-05T03:33:34;173.63;;;162.35;;
38021;SDS011;23832;43.216;27.946;2023-03-05T03:35:36;172.30;;;161.23;;
38021;SDS011;23832;43.216;27.946;2023-03-05T03:37:38;169.98;;;158.73;;
38021;SDS011;23832;43.216;27.946;2023-03-05T03:39:41;170.40;;;159.35;;
38021;SDS011;23832;43.216;27.946;2023-03-05T03:41:43;174.40;;;163.07;;
38021;SDS011;23832;43.216;27.946;2023-03-05T03:43:47;171.30;;;160.07;;
38021;SDS011;23832;43.216;27.946;2023-03-05T03:45:49;173.48;;;162.15;;
38021;SDS011;23832;43.216;27.946;2023-03-05T03:47:51;168.20;;;157.18;;
38021;SDS011;23832;43.216;27.946;2023-03-05T03:49:54;173.02;;;161.23;;
38021;SDS011;23832;43.216;27.946;2023-03-05T03:51:57;171.73;;;160.32;;
38021;SDS011;23832;43.216;27.946;2023-03-05T03:53:59;168.23;;;157.10;;
38021;SDS011;23832;43.216;27.946;2023-03-05T03:56:02;165.82;;;154.93;;
38021;SDS011;23832;43.216;27.946;2023-03-05T03:58:04;168.82;;;157.95;;
38021;SDS011;23832;43.216;27.946;2023-03-05T04:00:09;168.27;;;157.48;;
38021;SDS011;23832;43.216;27.946;2023-03-05T04:02:12;171.20;;;159.48;;
38021;SDS011;23832;43.216;27.946;2023-03-05T04:04:14;171.93;;;160.85;;
38021;SDS011;23832;43.216;27.946;2023-03-05T04:06:16;169.18;;;158.10;;
38021;SDS011;23832;43.216;27.946;2023-03-05T04:08:18;167.70;;;156.70;;
38021;SDS011;23832;43.216;27.946;2023-03-05T04:10:19;170.82;;;159.82;;
38021;SDS011;23832;43.216;27.946;2023-03-05T04:12:23;171.10;;;159.98;;
38021;SDS011;23832;43.216;27.946;2023-03-05T04:14:25;167.00;;;156.10;;
38021;SDS011;23832;43.216;27.946;2023-03-05T04:16:28;172.57;;;161.15;;
38021;SDS011;23832;43.216;27.946;2023-03-05T04:18:30;178.27;;;166.88;;
38021;SDS011;23832;43.216;27.946;2023-03-05T04:20:32;172.05;;;160.93;;
38021;SDS011;23832;43.216;27.946;2023-03-05T04:22:34;176.90;;;165.20;;
38021;SDS011;23832;43.216;27.946;2023-03-05T04:24:36;178.10;;;166.32;;
38021;SDS011;23832;43.216;27.946;2023-03-05T04:26:38;177.20;;;165.45;;
38021;SDS011;23832;43.216;27.946;2023-03-05T04:28:40;175.60;;;164.55;;
38021;SDS011;23832;43.216;27.946;2023-03-05T04:30:42;175.23;;;163.73;;
38021;SDS011;23832;43.216;27.946;2023-03-05T04:32:46;174.57;;;163.35;;
38021;SDS011;23832;43.216;27.946;2023-03-05T04:34:49;176.48;;;165.15;;
38021;SDS011;23832;43.216;27.946;2023-03-05T04:36:51;172.73;;;161.60;;
38021;SDS011;23832;43.216;27.946;2023-03-05T04:38:53;178.57;;;167.13;;
38021;SDS011;23832;43.216;27.946;2023-03-05T04:40:55;171.32;;;159.95;;
38021;SDS011;23832;43.216;27.946;2023-03-05T04:42:57;175.02;;;163.57;;
38021;SDS011;23832;43.216;27.946;2023-03-05T04:44:59;173.20;;;161.88;;
38021;SDS011;23832;43.216;27.946;2023-03-05T04:47:01;176.00;;;164.45;;
38021;SDS011;23832;43.216;27.946;2023-03-05T04:49:04;187.55;;;174.77;;
38021;SDS011;23832;43.216;27.946;2023-03-05T04:51:06;212.52;;;195.68;;
38021;SDS011;23832;43.216;27.946;2023-03-05T04:53:08;234.35;;;214.98;;
38021;SDS011;23832;43.216;27.946;2023-03-05T04:55:11;259.92;;;237.07;;
38021;SDS011;23832;43.216;27.946;2023-03-05T04:57:15;212.93;;;196.10;;
38021;SDS011;23832;43.216;27.946;2023-03-05T04:59:17;219.30;;;201.52;;
38021;SDS011;23832;43.216;27.946;2023-03-05T05:01:19;183.75;;;170.65;;
38021;SDS011;23832;43.216;27.946;2023-03-05T05:03:21;183.60;;;170.95;;
38021;SDS011;23832;43.216;27.946;2023-03-05T05:05:27;213.70;;;196.73;;
38021;SDS011;23832;43.216;27.946;2023-03-05T05:07:29;215.07;;;198.27;;
38021;SDS011;23832;43.216;27.946;2023-03-05T05:09:32;202.20;;;186.57;;
38021;SDS011;23832;43.216;27.946;2023-03-05T05:11:34;191.25;;;177.60;;
38021;SDS011;23832;43.216;27.946;2023-03-05T05:13:35;241.32;;;221.52;;
38021;SDS011;23832;43.216;27.946;2023-03-05T05:15:39;230.65;;;211.98;;
38021;SDS011;23832;43.216;27.946;2023-03-05T05:17:41;231.30;;;212.40;;
38021;SDS011;23832;43.216;27.946;2023-03-05T05:19:43;249.55;;;228.40;;
38021;SDS011;23832;43.216;27.946;2023-03-05T05:21:46;223.05;;;205.15;;
38021;SDS011;23832;43.216;27.946;2023-03-05T05:23:48;210.30;;;194.50;;
38021;SDS011;23832;43.216;27.946;2023-03-05T05:25:56;188.25;;;174.77;;
38021;SDS011;23832;43.216;27.946;2023-03-05T05:27:59;182.60;;;169.98;;
38021;SDS011;23832;43.216;27.946;2023-03-05T05:30:01;176.43;;;164.10;;
38021;SDS011;23832;43.216;27.946;2023-03-05T05:32:04;175.95;;;163.95;;
38021;SDS011;23832;43.216;27.946;2023-03-05T05:34:07;174.63;;;162.82;;
38021;SDS011;23832;43.216;27.946;2023-03-05T05:36:10;172.10;;;160.63;;
38021;SDS011;23832;43.216;27.946;2023-03-05T05:38:15;171.77;;;160.13;;
38021;SDS011;23832;43.216;27.946;2023-03-05T05:40:17;177.20;;;164.75;;
38021;SDS011;23832;43.216;27.946;2023-03-05T05:42:20;199.05;;;184.32;;
38021;SDS011;23832;43.216;27.946;2023-03-05T05:44:24;185.25;;;172.10;;
38021;SDS011;23832;43.216;27.946;2023-03-05T05:46:26;174.07;;;161.70;;
38021;SDS011;23832;43.216;27.946;2023-03-05T05:48:28;176.98;;;164.48;;
38021;SDS011;23832;43.216;27.946;2023-03-05T05:50:31;173.40;;;161.80;;
38021;SDS011;23832;43.216;27.946;2023-03-05T05:52:33;174.63;;;162.70;;
38021;SDS011;23832;43.216;27.946;2023-03-05T05:54:36;172.20;;;160.43;;
38021;SDS011;23832;43.216;27.946;2023-03-05T05:56:39;176.45;;;164.73;;
38021;SDS011;23832;43.216;27.946;2023-03-05T05:58:41;188.07;;;174.77;;
38021;SDS011;23832;43.216;27.946;2023-03-05T06:00:46;201.10;;;185.55;;
38021;SDS011;23832;43.216;27.946;2023-03-05T06:02:48;238.77;;;218.50;;
38021;SDS011;23832;43.216;27.946;2023-03-05T06:04:49;270.35;;;245.98;;
38021;SDS011;23832;43.216;27.946;2023-03-05T06:06:51;257.60;;;234.88;;
38021;SDS011;23832;43.216;27.946;2023-03-05T06:08:53;225.45;;;207.27;;
38021;SDS011;23832;43.216;27.946;2023-03-05T06:10:58;220.85;;;202.63;;
38021;SDS011;23832;43.216;27.946;2023-03-05T06:13:01;245.25;;;223.93;;
38021;SDS011;23832;43.216;27.946;2023-03-05T06:15:03;236.32;;;216.32;;
38021;SDS011;23832;43.216;27.946;2023-03-05T06:17:06;229.30;;;209.98;;
38021;SDS011;23832;43.216;27.946;2023-03-05T06:19:08;206.57;;;190.40;;
38021;SDS011;23832;43.216;27.946;2023-03-05T06:21:14;199.10;;;184.13;;
38021;SDS011;23832;43.216;27.946;2023-03-05T06:23:17;193.25;;;179.20;;
38021;SDS011;23832;43.216;27.946;2023-03-05T06:25:19;180.23;;;167.70;;
38021;SDS011;23832;43.216;27.946;2023-03-05T06:27:22;235.88;;;215.75;;
38021;SDS011;23832;43.216;27.946;2023-03-05T06:29:24;238.50;;;217.93;;
38021;SDS011;23832;43.216;27.946;2023-03-05T06:31:27;235.93;;;215.48;;
38021;SDS011;23832;43.216;27.946;2023-03-05T06:33:30;216.35;;;198.60;;
38021;SDS011;23832;43.216;27.946;2023-03-05T06:35:32;194.63;;;180.15;;
38021;SDS011;23832;43.216;27.946;2023-03-05T06:37:34;179.95;;;166.88;;
38021;SDS011;23832;43.216;27.946;2023-03-05T06:39:36;184.70;;;171.55;;
38021;SDS011;23832;43.216;27.946;2023-03-05T06:41:39;179.90;;;167.50;;
38021;SDS011;23832;43.216;27.946;2023-03-05T06:43:43;174.32;;;162.48;;
38021;SDS011;23832;43.216;27.946;2023-03-05T06:45:46;175.98;;;163.95;;
38021;SDS011;23832;43.216;27.946;2023-03-05T06:47:48;173.35;;;161.80;;
38021;SDS011;23832;43.216;27.946;2023-03-05T06:49:50;172.70;;;161.23;;
38021;SDS011;23832;43.216;27.946;2023-03-05T06:51:52;171.38;;;159.68;;
38021;SDS011;23832;43.216;27.946;2023-03-05T06:53:54;169.00;;;157.80;;
38021;SDS011;23832;43.216;27.946;2023-03-05T06:55:59;168.55;;;157.25;;
38021;SDS011;23832;43.216;27.946;2023-03-05T06:58:01;173.20;;;161.63;;
38021;SDS011;23832;43.216;27.946;2023-03-05T07:00:05;173.35;;;161.93;;
38021;SDS011;23832;43.216;27.946;2023-03-05T07:02:10;175.15;;;163.32;;
38021;SDS011;23832;43.216;27.946;2023-03-05T07:04:13;171.68;;;160.30;;
38021;SDS011;23832;43.216;27.946;2023-03-05T07:06:16;172.70;;;161.27;;
38021;SDS011;23832;43.216;27.946;2023-03-05T07:08:18;174.55;;;162.88;;
38021;SDS011;23832;43.216;27.946;2023-03-05T07:10:20;170.52;;;159.10;;
38021;SDS011;23832;43.216;27.946;2023-03-05T07:12:22;171.88;;;160.23;;
38021;SDS011;23832;43.216;27.946;2023-03-05T07:14:24;168.88;;;157.02;;
38021;SDS011;23832;43.216;27.946;2023-03-05T07:16:29;172.00;;;160.35;;
38021;SDS011;23832;43.216;27.946;2023-03-05T07:18:32;176.75;;;164.70;;
38021;SDS011;23832;43.216;27.946;2023-03-05T07:20:34;173.43;;;161.70;;
38021;SDS011;23832;43.216;27.946;2023-03-05T07:22:37;172.75;;;160.88;;
38021;SDS011;23832;43.216;27.946;2023-03-05T07:24:38;173.60;;;161.82;;
38021;SDS011;23832;43.216;27.946;2023-03-05T07:26:41;177.82;;;165.35;;
38021;SDS011;23832;43.216;27.946;2023-03-05T07:28:43;281.10;;;255.25;;
38021;SDS011;23832;43.216;27.946;2023-03-05T07:30:53;286.02;;;260.55;;
38021;SDS011;23832;43.216;27.946;2023-03-05T07:32:57;230.63;;;211.43;;
38021;SDS011;23832;43.216;27.946;2023-03-05T07:34:59;204.50;;;188.90;;
38021;SDS011;23832;43.216;27.946;2023-03-05T07:37:01;197.65;;;182.63;;
38021;SDS011;23832;43.216;27.946;2023-03-05T07:39:03;187.60;;;174.13;;
38021;SDS011;23832;43.216;27.946;2023-03-05T07:41:06;181.35;;;168.52;;
38021;SDS011;23832;43.216;27.946;2023-03-05T07:43:09;176.95;;;164.57;;
38021;SDS011;23832;43.216;27.946;2023-03-05T07:45:11;196.10;;;181.57;;
38021;SDS011;23832;43.216;27.946;2023-03-05T07:47:13;254.07;;;232.48;;
38021;SDS011;23832;43.216;27.946;2023-03-05T07:49:17;236.07;;;216.57;;
38021;SDS011;23832;43.216;27.946;2023-03-05T07:51:19;214.52;;;197.63;;
38021;SDS011;23832;43.216;27.946;2023-03-05T07:53:22;186.75;;;173.35;;
38021;SDS011;23832;43.216;27.946;2023-03-05T07:55:24;184.43;;;171.00;;
38021;SDS011;23832;43.216;27.946;2023-03-05T07:57:26;184.38;;;171.68;;
38021;SDS011;23832;43.216;27.946;2023-03-05T07:59:28;177.70;;;165.60;;
38021;SDS011;23832;43.216;27.946;2023-03-05T08:01:31;171.80;;;159.98;;
38021;SDS011;23832;43.216;27.946;2023-03-05T08:03:34;173.25;;;161.32;;
38021;SDS011;23832;43.216;27.946;2023-03-05T08:05:38;173.68;;;162.00;;
38021;SDS011;23832;43.216;27.946;2023-03-05T08:07:41;175.55;;;163.27;;
38021;SDS011;23832;43.216;27.946;2023-03-05T08:09:43;172.45;;;160.45;;
38021;SDS011;23832;43.216;27.946;2023-03-05T08:11:45;168.07;;;156.63;;
38021;SDS011;23832;43.216;27.946;2023-03-05T08:13:47;174.75;;;163.05;;
38021;SDS011;23832;43.216;27.946;2023-03-05T08:15:49;171.43;;;159.55;;
38021;SDS011;23832;43.216;27.946;2023-03-05T08:17:51;167.68;;;156.02;;
38021;SDS011;23832;43.216;27.946;2023-03-05T08:19:53;167.70;;;156.43;;
38021;SDS011;23832;43.216;27.946;2023-03-05T08:22:00;169.65;;;158.38;;
38021;SDS011;23832;43.216;27.946;2023-03-05T08:24:02;174.90;;;162.85;;
38021;SDS011;23832;43.216;27.946;2023-03-05T08:26:09;173.05;;;161.35;;
38021;SDS011;23832;43.216;27.946;2023-03-05T08:28:12;170.80;;;159.10;;
38021;SDS011;23832;43.216;27.946;2023-03-05T08:30:17;169.45;;;158.13;;
38021;SDS011;23832;43.216;27.946;2023-03-05T08:32:21;173.25;;;161.57;;
38021;SDS011;23832;43.216;27.946;2023-03-05T08:34:23;177.13;;;165.32;;
38021;SDS011;23832;43.216;27.946;2023-03-05T08:36:25;171.93;;;160.20;;
38021;SDS011;23832;43.216;27.946;2023-03-05T08:38:29;173.30;;;161.07;;
38021;SDS011;23832;43.216;27.946;2023-03-05T08:40:31;175.95;;;163.55;;
38021;SDS011;23832;43.216;27.946;2023-03-05T08:42:33;177.25;;;165.27;;
38021;SDS011;23832;43.216;27.946;2023-03-05T08:44:35;173.50;;;161.48;;
38021;SDS011;23832;43.216;27.946;2023-03-05T08:46:37;168.75;;;157.60;;
38021;SDS011;23832;43.216;27.946;2023-03-05T08:48:40;174.27;;;162.48;;
38021;SDS011;23832;43.216;27.946;2023-03-05T08:50:42;169.63;;;158.57;;
38021;SDS011;23832;43.216;27.946;2023-03-05T08:52:44;172.23;;;160.55;;
38021;SDS011;23832;43.216;27.946;2023-03-05T08:54:47;168.45;;;157.10;;
38021;SDS011;23832;43.216;27.946;2023-03-05T08:56:50;170.70;;;159.27;;
38021;SDS011;23832;43.216;27.946;2023-03-05T08:58:52;173.50;;;161.90;;
38021;SDS011;23832;43.216;27.946;2023-03-05T09:00:54;174.65;;;162.77;;
38021;SDS011;23832;43.216;27.946;2023-03-05T09:02:56;167.45;;;156.38;;
38021;SDS011;23832;43.216;27.946;2023-03-05T09:04:59;163.18;;;152.07;;
38021;SDS011;23832;43.216;27.946;2023-03-05T09:07:00;166.48;;;155.27;;
38021;SDS011;23832;43.216;27.946;2023-03-05T09:09:02;170.23;;;158.98;;
38021;SDS011;23832;43.216;27.946;2023-03-05T09:11:06;166.63;;;155.70;;
38021;SDS011;23832;43.216;27.946;2023-03-05T09:13:12;166.77;;;155.85;;
38021;SDS011;23832;43.216;27.946;2023-03-05T09:15:14;167.48;;;156.27;;
38021;SDS011;23832;43.216;27.946;2023-03-05T09:17:16;166.95;;;155.90;;
38021;SDS011;23832;43.216;27.946;2023-03-05T09:19:18;168.73;;;157.80;;
38021;SDS011;23832;43.216;27.946;2023-03-05T09:21:20;161.27;;;150.43;;
38021;SDS011;23832;43.216;27.946;2023-03-05T09:23:22;166.35;;;155.20;;
38021;SDS011;23832;43.216;27.946;2023-03-05T09:25:24;168.25;;;157.35;;
38021;SDS011;23832;43.216;27.946;2023-03-05T09:27:28;165.70;;;155.10;;
38021;SDS011;23832;43.216;27.946;2023-03-05T09:29:33;161.57;;;151.35;;
38021;SDS011;23832;43.216;27.946;2023-03-05T09:31:35;164.15;;;153.60;;
38021;SDS011;23832;43.216;27.946;2023-03-05T09:33:37;161.05;;;150.32;;
38021;SDS011;23832;43.216;27.946;2023-03-05T09:35:40;173.48;;;162.00;;
38021;SDS011;23832;43.216;27.946;2023-03-05T09:37:42;165.50;;;154.50;;
38021;SDS011;23832;43.216;27.946;2023-03-05T09:39:44;166.10;;;155.73;;
38021;SDS011;23832;43.216;27.946;2023-03-05T09:41:51;164.60;;;153.90;;
38021;SDS011;23832;43.216;27.946;2023-03-05T09:44:14;161.80;;;151.15;;
38021;SDS011;23832;43.216;27.946;2023-03-05T09:46:28;166.45;;;155.90;;
38021;SDS011;23832;43.216;27.946;2023-03-05T09:48:42;160.25;;;149.93;;
38021;SDS011;23832;43.216;27.946;2023-03-05T09:50:51;161.52;;;150.93;;
38021;SDS011;23832;43.216;27.946;2023-03-05T09:53:00;167.10;;;156.30;;
38021;SDS011;23832;43.216;27.946;2023-03-05T09:55:08;164.75;;;153.80;;
38021;SDS011;23832;43.216;27.946;2023-03-05T09:57:16;161.13;;;150.65;;
38021;SDS011;23832;43.216;27.946;2023-03-05T09:59:24;161.15;;;150.75;;
38021;SDS011;23832;43.216;27.946;2023-03-05T10:01:35;165.20;;;154.05;;
38021;SDS011;23832;43.216;27.946;2023-03-05T10:03:42;167.98;;;157.30;;
38021;SDS011;23832;43.216;27.946;2023-03-05T10:05:55;162.90;;;152.18;;
38021;SDS011;23832;43.216;27.946;2023-03-05T10:08:04;168.27;;;157.50;;
38021;SDS011;23832;43.216;27.946;2023-03-05T10:10:08;166.25;;;154.98;;
38021;SDS011;23832;43.216;27.946;2023-03-05T10:12:14;164.18;;;153.30;;
38021;SDS011;23832;43.216;27.946;2023-03-05T10:14:27;166.13;;;155.18;;
38021;SDS011;23832;43.216;27.946;2023-03-05T10:19:12;165.23;;;154.57;;
38021;SDS011;23832;43.216;27.946;2023-03-05T10:21:22;166.52;;;155.32;;
38021;SDS011;23832;43.216;27.946;2023-03-05T10:23:36;165.75;;;154.65;;
38021;SDS011;23832;43.216;27.946;2023-03-05T10:26:03;169.45;;;158.27;;
38021;SDS011;23832;43.216;27.946;2023-03-05T10:28:10;171.38;;;160.18;;
38021;SDS011;23832;43.216;27.946;2023-03-05T10:30:25;167.07;;;155.95;;
38021;SDS011;23832;43.216;27.946;2023-03-05T10:32:44;168.00;;;156.65;;
38021;SDS011;23832;43.216;27.946;2023-03-05T10:37:27;166.88;;;156.07;;
38021;SDS011;23832;43.216;27.946;2023-03-05T10:39:57;166.25;;;154.88;;
38021;SDS011;23832;43.216;27.946;2023-03-05T10:42:06;167.98;;;156.73;;
38021;SDS011;23832;43.216;27.946;2023-03-05T10:44:17;172.95;;;161.45;;
38021;SDS011;23832;43.216;27.946;2023-03-05T10:46:30;168.30;;;157.07;;
38021;SDS011;23832;43.216;27.946;2023-03-05T10:48:36;167.60;;;156.27;;
38021;SDS011;23832;43.216;27.946;2023-03-05T10:50:44;171.57;;;159.95;;
38021;SDS011;23832;43.216;27.946;2023-03-05T10:52:51;170.43;;;158.85;;
38021;SDS011;23832;43.216;27.946;2023-03-05T10:55:02;166.52;;;155.45;;
38021;SDS011;23832;43.216;27.946;2023-03-05T10:57:17;163.63;;;152.70;;
38021;SDS011;23832;43.216;27.946;2023-03-05T10:59:21;165.13;;;154.20;;
38021;SDS011;23832;43.216;27.946;2023-03-05T11:01:25;169.82;;;158.68;;
38021;SDS011;23832;43.216;27.946;2023-03-05T11:03:50;167.02;;;156.25;;
38021;SDS011;23832;43.216;27.946;2023-03-05T11:05:57;168.90;;;157.88;;
38021;SDS011;23832;43.216;27.946;2023-03-05T11:08:05;161.88;;;151.00;;
38021;SDS011;23832;43.216;27.946;2023-03-05T11:10:24;165.90;;;154.90;;
38021;SDS011;23832;43.216;27.946;2023-03-05T11:12:27;167.20;;;156.20;;
38021;SDS011;23832;43.216;27.946;2023-03-05T11:14:30;164.43;;;153.50;;
38021;SDS011;23832;43.216;27.946;2023-03-05T11:16:33;168.10;;;156.73;;
38021;SDS011;23832;43.216;27.946;2023-03-05T11:18:49;165.38;;;154.55;;
38021;SDS011;23832;43.216;27.946;2023-03-05T11:20:51;169.88;;;158.48;;
38021;SDS011;23832;43.216;27.946;2023-03-05T11:23:00;171.35;;;159.55;;
38021;SDS011;23832;43.216;27.946;2023-03-05T11:25:13;171.15;;;159.60;;
38021;SDS011;23832;43.216;27.946;2023-03-05T11:27:21;167.23;;;155.95;;
38021;SDS011;23832;43.216;27.946;2023-03-05T11:29:27;167.90;;;156.68;;
38021;SDS011;23832;43.216;27.946;2023-03-05T11:31:31;162.73;;;152.00;;
38021;SDS011;23832;43.216;27.946;2023-03-05T11:33:34;170.43;;;158.98;;
38021;SDS011;23832;43.216;27.946;2023-03-05T11:35:39;167.57;;;156.65;;
38021;SDS011;23832;43.216;27.946;2023-03-05T11:37:43;167.98;;;156.90;;
38021;SDS011;23832;43.216;27.946;2023-03-05T11:39:44;165.38;;;154.45;;
38021;SDS011;23832;43.216;27.946;2023-03-05T11:41:48;165.98;;;154.68;;